sensor_id;sensor_type;location;lat;lon;timestamp;temperature;humidity
23087;DHT22;11712;51.134;4.156;2023-04-06T00:02:20;9.90;99.90
23087;DHT22;11712;51.134;4.156;2023-04-06T00:04:45;9.80;99.90
23087;DHT22;11712;51.134;4.156;2023-04-06T00:07:11;9.90;99.90
23087;DHT22;11712;51.134;4.156;2023-04-06T00:09:37;9.70;99.90
23087;DHT22;11712;51.134;4.156;2023-04-06T00:12:02;9.80;99.90
23087;DHT22;11712;51.134;4.156;2023-04-06T00:14:28;9.90;99.90
23087;DHT22;11712;51.134;4.156;2023-04-06T00:16:53;9.90;99.90
23087;DHT22;11712;51.134;4.156;2023-04-06T00:19:19;9.90;99.90
23087;DHT22;11712;51.134;4.156;2023-04-06T00:21:44;9.90;99.90
23087;DHT22;11712;51.134;4.156;2023-04-06T00:24:10;9.80;99.90
23087;DHT22;11712;51.134;4.156;2023-04-06T00:26:35;9.80;99.90
23087;DHT22;11712;51.134;4.156;2023-04-06T00:29:01;9.70;99.90
23087;DHT22;11712;51.134;4.156;2023-04-06T00:31:27;9.70;99.90
23087;DHT22;11712;51.134;4.156;2023-04-06T00:33:52;9.60;99.90
23087;DHT22;11712;51.134;4.156;2023-04-06T00:36:18;9.60;99.90
23087;DHT22;11712;51.134;4.156;2023-04-06T00:38:43;9.60;99.90
23087;DHT22;11712;51.134;4.156;2023-04-06T00:41:09;9.60;99.90
23087;DHT22;11712;51.134;4.156;2023-04-06T00:43:34;9.50;99.90
23087;DHT22;11712;51.134;4.156;2023-04-06T00:46:00;9.60;99.90
23087;DHT22;11712;51.134;4.156;2023-04-06T00:48:25;9.60;99.90
23087;DHT22;11712;51.134;4.156;2023-04-06T00:50:51;9.50;99.90
23087;DHT22;11712;51.134;4.156;2023-04-06T00:53:17;9.40;99.90
23087;DHT22;11712;51.134;4.156;2023-04-06T00:55:42;9.30;99.90
23087;DHT22;11712;51.134;4.156;2023-04-06T00:58:08;9.20;99.90
23087;DHT22;11712;51.134;4.156;2023-04-06T01:00:34;9.10;99.90
23087;DHT22;11712;51.134;4.156;2023-04-06T01:02:59;9.00;99.90
23087;DHT22;11712;51.134;4.156;2023-04-06T01:05:26;9.00;99.90
23087;DHT22;11712;51.134;4.156;2023-04-06T01:07:51;8.90;99.90
23087;DHT22;11712;51.134;4.156;2023-04-06T01:10:24;8.90;99.90
23087;DHT22;11712;51.134;4.156;2023-04-06T01:12:50;8.80;99.90
23087;DHT22;11712;51.134;4.156;2023-04-06T01:15:15;8.70;99.90
23087;DHT22;11712;51.134;4.156;2023-04-06T01:17:41;8.50;99.90
23087;DHT22;11712;51.134;4.156;2023-04-06T01:20:07;8.40;99.90
23087;DHT22;11712;51.134;4.156;2023-04-06T01:22:32;8.40;99.90
23087;DHT22;11712;51.134;4.156;2023-04-06T01:24:58;8.40;99.90
23087;DHT22;11712;51.134;4.156;2023-04-06T01:27:24;8.40;99.90
23087;DHT22;11712;51.134;4.156;2023-04-06T01:29:51;8.30;99.90
23087;DHT22;11712;51.134;4.156;2023-04-06T01:32:17;8.30;99.90
23087;DHT22;11712;51.134;4.156;2023-04-06T01:34:42;8.20;99.90
23087;DHT22;11712;51.134;4.156;2023-04-06T01:37:08;8.20;99.90
23087;DHT22;11712;51.134;4.156;2023-04-06T01:39:33;8.10;99.90
23087;DHT22;11712;51.134;4.156;2023-04-06T01:41:59;8.10;99.90
23087;DHT22;11712;51.134;4.156;2023-04-06T01:44:25;8.10;99.90
23087;DHT22;11712;51.134;4.156;2023-04-06T01:46:50;8.10;99.90
23087;DHT22;11712;51.134;4.156;2023-04-06T01:49:16;8.10;99.90
23087;DHT22;11712;51.134;4.156;2023-04-06T01:51:41;8.10;99.90
23087;DHT22;11712;51.134;4.156;2023-04-06T01:54:07;8.00;99.90
23087;DHT22;11712;51.134;4.156;2023-04-06T01:56:32;8.10;99.90
23087;DHT22;11712;51.134;4.156;2023-04-06T01:58:58;8.10;99.90
23087;DHT22;11712;51.134;4.156;2023-04-06T02:01:24;8.10;99.90
23087;DHT22;11712;51.134;4.156;2023-04-06T02:03:49;8.20;99.90
23087;DHT22;11712;51.134;4.156;2023-04-06T02:06:15;8.20;99.90
23087;DHT22;11712;51.134;4.156;2023-04-06T02:08:40;8.20;99.90
23087;DHT22;11712;51.134;4.156;2023-04-06T02:11:06;8.20;99.90
23087;DHT22;11712;51.134;4.156;2023-04-06T02:13:31;8.20;99.90
23087;DHT22;11712;51.134;4.156;2023-04-06T02:15:57;8.20;99.90
23087;DHT22;11712;51.134;4.156;2023-04-06T02:18:23;8.20;99.90
23087;DHT22;11712;51.134;4.156;2023-04-06T02:20:48;8.20;99.90
23087;DHT22;11712;51.134;4.156;2023-04-06T02:23:14;8.20;99.90
23087;DHT22;11712;51.134;4.156;2023-04-06T02:25:40;8.10;99.90
23087;DHT22;11712;51.134;4.156;2023-04-06T02:28:06;8.10;99.90
23087;DHT22;11712;51.134;4.156;2023-04-06T02:30:31;8.10;99.90
23087;DHT22;11712;51.134;4.156;2023-04-06T02:32:59;8.10;99.90
23087;DHT22;11712;51.134;4.156;2023-04-06T02:35:25;8.10;99.90
23087;DHT22;11712;51.134;4.156;2023-04-06T02:37:50;8.00;99.90
23087;DHT22;11712;51.134;4.156;2023-04-06T02:40:16;8.10;99.90
23087;DHT22;11712;51.134;4.156;2023-04-06T02:42:41;8.00;99.90
23087;DHT22;11712;51.134;4.156;2023-04-06T02:45:07;7.90;99.90
23087;DHT22;11712;51.134;4.156;2023-04-06T02:47:33;8.00;99.90
23087;DHT22;11712;51.134;4.156;2023-04-06T02:49:59;8.00;99.90
23087;DHT22;11712;51.134;4.156;2023-04-06T02:52:25;8.00;99.90
23087;DHT22;11712;51.134;4.156;2023-04-06T02:54:51;8.00;99.90
23087;DHT22;11712;51.134;4.156;2023-04-06T02:57:16;8.00;99.90
23087;DHT22;11712;51.134;4.156;2023-04-06T02:59:42;8.20;99.90
23087;DHT22;11712;51.134;4.156;2023-04-06T03:02:07;8.20;99.90
23087;DHT22;11712;51.134;4.156;2023-04-06T03:04:33;8.30;99.90
23087;DHT22;11712;51.134;4.156;2023-04-06T03:06:58;8.30;99.90
23087;DHT22;11712;51.134;4.156;2023-04-06T03:09:24;8.20;99.90
23087;DHT22;11712;51.134;4.156;2023-04-06T03:11:49;8.10;99.90
23087;DHT22;11712;51.134;4.156;2023-04-06T03:14:15;8.00;99.90
23087;DHT22;11712;51.134;4.156;2023-04-06T03:16:42;8.10;99.90
23087;DHT22;11712;51.134;4.156;2023-04-06T03:19:08;8.10;99.90
23087;DHT22;11712;51.134;4.156;2023-04-06T03:21:34;8.20;99.90
23087;DHT22;11712;51.134;4.156;2023-04-06T03:23:59;8.10;99.90
23087;DHT22;11712;51.134;4.156;2023-04-06T03:26:25;8.20;99.90
23087;DHT22;11712;51.134;4.156;2023-04-06T03:28:51;8.40;99.90
23087;DHT22;11712;51.134;4.156;2023-04-06T03:31:16;8.20;99.90
23087;DHT22;11712;51.134;4.156;2023-04-06T03:33:42;8.30;99.90
23087;DHT22;11712;51.134;4.156;2023-04-06T03:36:07;8.20;99.90
23087;DHT22;11712;51.134;4.156;2023-04-06T03:38:33;8.20;99.90
23087;DHT22;11712;51.134;4.156;2023-04-06T03:40:59;8.20;99.90
23087;DHT22;11712;51.134;4.156;2023-04-06T03:43:24;8.10;99.90
23087;DHT22;11712;51.134;4.156;2023-04-06T03:45:50;7.80;99.90
23087;DHT22;11712;51.134;4.156;2023-04-06T03:48:15;7.80;99.90
23087;DHT22;11712;51.134;4.156;2023-04-06T03:50:41;7.70;99.90
23087;DHT22;11712;51.134;4.156;2023-04-06T03:53:06;7.70;99.90
23087;DHT22;11712;51.134;4.156;2023-04-06T03:55:32;7.60;99.90
23087;DHT22;11712;51.134;4.156;2023-04-06T03:57:58;7.60;99.90
23087;DHT22;11712;51.134;4.156;2023-04-06T04:00:23;7.60;99.90
23087;DHT22;11712;51.134;4.156;2023-04-06T04:02:49;7.60;99.90
23087;DHT22;11712;51.134;4.156;2023-04-06T04:05:14;7.40;99.90
23087;DHT22;11712;51.134;4.156;2023-04-06T04:07:40;7.50;99.90
23087;DHT22;11712;51.134;4.156;2023-04-06T04:10:05;7.60;99.90
23087;DHT22;11712;51.134;4.156;2023-04-06T04:12:31;7.60;99.90
23087;DHT22;11712;51.134;4.156;2023-04-06T04:14:56;7.60;99.90
23087;DHT22;11712;51.134;4.156;2023-04-06T04:17:22;7.60;99.90
23087;DHT22;11712;51.134;4.156;2023-04-06T04:19:48;7.50;99.90
23087;DHT22;11712;51.134;4.156;2023-04-06T04:22:13;7.50;99.90
23087;DHT22;11712;51.134;4.156;2023-04-06T04:24:39;7.50;99.90
23087;DHT22;11712;51.134;4.156;2023-04-06T04:27:04;7.50;99.90
23087;DHT22;11712;51.134;4.156;2023-04-06T04:29:30;7.60;99.90
23087;DHT22;11712;51.134;4.156;2023-04-06T04:31:55;7.60;99.90
23087;DHT22;11712;51.134;4.156;2023-04-06T04:34:21;7.70;99.90
23087;DHT22;11712;51.134;4.156;2023-04-06T04:36:49;7.80;99.90
23087;DHT22;11712;51.134;4.156;2023-04-06T04:39:14;7.70;99.90
23087;DHT22;11712;51.134;4.156;2023-04-06T04:41:40;7.70;99.90
23087;DHT22;11712;51.134;4.156;2023-04-06T04:44:05;7.70;99.90
23087;DHT22;11712;51.134;4.156;2023-04-06T04:46:31;7.60;99.90
23087;DHT22;11712;51.134;4.156;2023-04-06T04:48:56;7.60;99.90
23087;DHT22;11712;51.134;4.156;2023-04-06T04:51:22;7.70;99.90
23087;DHT22;11712;51.134;4.156;2023-04-06T04:53:47;7.70;99.90
23087;DHT22;11712;51.134;4.156;2023-04-06T04:56:13;7.80;99.90
23087;DHT22;11712;51.134;4.156;2023-04-06T04:58:38;7.90;99.90
23087;DHT22;11712;51.134;4.156;2023-04-06T05:01:04;7.90;99.90
23087;DHT22;11712;51.134;4.156;2023-04-06T05:03:30;7.90;99.90
23087;DHT22;11712;51.134;4.156;2023-04-06T05:05:55;7.90;99.90
23087;DHT22;11712;51.134;4.156;2023-04-06T05:08:21;8.00;99.90
23087;DHT22;11712;51.134;4.156;2023-04-06T05:10:46;8.00;99.90
23087;DHT22;11712;51.134;4.156;2023-04-06T05:13:13;7.90;99.90
23087;DHT22;11712;51.134;4.156;2023-04-06T05:15:39;7.90;99.90
23087;DHT22;11712;51.134;4.156;2023-04-06T05:18:05;7.90;99.90
23087;DHT22;11712;51.134;4.156;2023-04-06T05:20:31;7.90;99.90
23087;DHT22;11712;51.134;4.156;2023-04-06T05:22:56;7.70;99.90
23087;DHT22;11712;51.134;4.156;2023-04-06T05:25:22;7.70;99.90
23087;DHT22;11712;51.134;4.156;2023-04-06T05:27:47;7.70;99.90
23087;DHT22;11712;51.134;4.156;2023-04-06T05:30:13;7.80;99.90
23087;DHT22;11712;51.134;4.156;2023-04-06T05:32:39;7.80;99.90
23087;DHT22;11712;51.134;4.156;2023-04-06T05:35:05;7.90;99.90
23087;DHT22;11712;51.134;4.156;2023-04-06T05:37:30;8.00;99.90
23087;DHT22;11712;51.134;4.156;2023-04-06T05:39:56;8.00;99.90
23087;DHT22;11712;51.134;4.156;2023-04-06T05:42:22;8.00;99.90
23087;DHT22;11712;51.134;4.156;2023-04-06T05:44:47;8.00;99.90
23087;DHT22;11712;51.134;4.156;2023-04-06T05:47:13;8.10;99.90
23087;DHT22;11712;51.134;4.156;2023-04-06T05:49:38;8.10;99.90
23087;DHT22;11712;51.134;4.156;2023-04-06T05:52:04;8.10;99.90
23087;DHT22;11712;51.134;4.156;2023-04-06T05:54:30;8.10;99.90
23087;DHT22;11712;51.134;4.156;2023-04-06T05:56:55;8.10;99.90
23087;DHT22;11712;51.134;4.156;2023-04-06T05:59:21;8.10;99.90
23087;DHT22;11712;51.134;4.156;2023-04-06T06:01:46;8.10;99.90
23087;DHT22;11712;51.134;4.156;2023-04-06T06:04:12;8.20;99.90
23087;DHT22;11712;51.134;4.156;2023-04-06T06:06:37;8.20;99.90
23087;DHT22;11712;51.134;4.156;2023-04-06T06:09:03;8.20;99.90
23087;DHT22;11712;51.134;4.156;2023-04-06T06:11:29;8.10;99.90
23087;DHT22;11712;51.134;4.156;2023-04-06T06:13:55;8.10;99.90
23087;DHT22;11712;51.134;4.156;2023-04-06T06:16:20;8.10;99.90
23087;DHT22;11712;51.134;4.156;2023-04-06T06:18:46;8.10;99.90
23087;DHT22;11712;51.134;4.156;2023-04-06T06:21:11;8.20;99.90
23087;DHT22;11712;51.134;4.156;2023-04-06T06:23:37;8.30;99.90
23087;DHT22;11712;51.134;4.156;2023-04-06T06:26:03;8.40;99.90
23087;DHT22;11712;51.134;4.156;2023-04-06T06:28:29;8.30;99.90
23087;DHT22;11712;51.134;4.156;2023-04-06T06:30:55;8.20;99.90
23087;DHT22;11712;51.134;4.156;2023-04-06T06:33:20;8.20;99.90
23087;DHT22;11712;51.134;4.156;2023-04-06T06:35:46;8.20;99.90
23087;DHT22;11712;51.134;4.156;2023-04-06T06:38:11;8.10;99.90
23087;DHT22;11712;51.134;4.156;2023-04-06T06:40:37;8.20;99.90
23087;DHT22;11712;51.134;4.156;2023-04-06T06:43:02;8.20;99.90
23087;DHT22;11712;51.134;4.156;2023-04-06T06:45:28;8.30;99.90
23087;DHT22;11712;51.134;4.156;2023-04-06T06:47:54;8.40;99.90
23087;DHT22;11712;51.134;4.156;2023-04-06T06:50:20;8.60;99.90
23087;DHT22;11712;51.134;4.156;2023-04-06T06:52:46;8.70;99.90
23087;DHT22;11712;51.134;4.156;2023-04-06T06:55:11;8.70;99.90
23087;DHT22;11712;51.134;4.156;2023-04-06T06:57:37;8.80;99.90
23087;DHT22;11712;51.134;4.156;2023-04-06T07:00:04;8.80;99.90
23087;DHT22;11712;51.134;4.156;2023-04-06T07:02:30;8.90;99.90
23087;DHT22;11712;51.134;4.156;2023-04-06T07:04:56;9.10;99.90
23087;DHT22;11712;51.134;4.156;2023-04-06T07:07:22;9.00;99.90
23087;DHT22;11712;51.134;4.156;2023-04-06T07:09:47;9.10;99.90
23087;DHT22;11712;51.134;4.156;2023-04-06T07:12:13;9.20;99.90
23087;DHT22;11712;51.134;4.156;2023-04-06T07:14:38;9.30;99.90
23087;DHT22;11712;51.134;4.156;2023-04-06T07:17:04;9.30;99.90
23087;DHT22;11712;51.134;4.156;2023-04-06T07:19:29;9.20;99.90
23087;DHT22;11712;51.134;4.156;2023-04-06T07:21:55;9.30;99.90
23087;DHT22;11712;51.134;4.156;2023-04-06T07:24:21;9.20;99.90
23087;DHT22;11712;51.134;4.156;2023-04-06T07:26:47;9.40;99.90
23087;DHT22;11712;51.134;4.156;2023-04-06T07:29:12;9.50;99.90
23087;DHT22;11712;51.134;4.156;2023-04-06T07:31:38;9.60;99.90
23087;DHT22;11712;51.134;4.156;2023-04-06T07:34:03;9.60;99.90
23087;DHT22;11712;51.134;4.156;2023-04-06T07:36:29;9.80;99.90
23087;DHT22;11712;51.134;4.156;2023-04-06T07:38:54;9.80;99.90
23087;DHT22;11712;51.134;4.156;2023-04-06T07:41:20;10.00;99.90
23087;DHT22;11712;51.134;4.156;2023-04-06T07:43:46;10.00;99.90
23087;DHT22;11712;51.134;4.156;2023-04-06T07:46:11;9.90;99.90
23087;DHT22;11712;51.134;4.156;2023-04-06T07:48:37;9.90;99.90
23087;DHT22;11712;51.134;4.156;2023-04-06T07:51:03;9.90;99.90
23087;DHT22;11712;51.134;4.156;2023-04-06T07:53:29;9.80;99.90
23087;DHT22;11712;51.134;4.156;2023-04-06T07:55:55;9.60;99.90
23087;DHT22;11712;51.134;4.156;2023-04-06T07:58:21;9.50;99.90
23087;DHT22;11712;51.134;4.156;2023-04-06T08:00:47;9.50;99.90
23087;DHT22;11712;51.134;4.156;2023-04-06T08:03:12;9.50;99.90
23087;DHT22;11712;51.134;4.156;2023-04-06T08:05:38;9.50;99.90
23087;DHT22;11712;51.134;4.156;2023-04-06T08:08:04;9.60;99.90
23087;DHT22;11712;51.134;4.156;2023-04-06T08:10:29;9.50;99.90
23087;DHT22;11712;51.134;4.156;2023-04-06T08:12:55;9.60;99.90
23087;DHT22;11712;51.134;4.156;2023-04-06T08:15:20;9.60;99.90
23087;DHT22;11712;51.134;4.156;2023-04-06T08:17:46;9.60;99.90
23087;DHT22;11712;51.134;4.156;2023-04-06T08:20:11;9.70;99.90
23087;DHT22;11712;51.134;4.156;2023-04-06T08:22:37;9.50;99.90
23087;DHT22;11712;51.134;4.156;2023-04-06T08:25:03;9.30;99.90
23087;DHT22;11712;51.134;4.156;2023-04-06T08:27:28;9.30;99.90
23087;DHT22;11712;51.134;4.156;2023-04-06T08:29:54;9.30;99.90
23087;DHT22;11712;51.134;4.156;2023-04-06T08:32:20;9.20;99.90
23087;DHT22;11712;51.134;4.156;2023-04-06T08:34:46;9.20;99.90
23087;DHT22;11712;51.134;4.156;2023-04-06T08:37:11;9.30;99.90
23087;DHT22;11712;51.134;4.156;2023-04-06T08:39:37;9.30;99.90
23087;DHT22;11712;51.134;4.156;2023-04-06T08:42:02;9.40;99.90
23087;DHT22;11712;51.134;4.156;2023-04-06T08:44:31;9.40;99.90
23087;DHT22;11712;51.134;4.156;2023-04-06T08:46:57;9.20;99.90
23087;DHT22;11712;51.134;4.156;2023-04-06T08:49:24;9.20;99.90
23087;DHT22;11712;51.134;4.156;2023-04-06T08:51:50;9.40;99.90
23087;DHT22;11712;51.134;4.156;2023-04-06T08:54:16;9.40;99.90
23087;DHT22;11712;51.134;4.156;2023-04-06T08:56:41;9.40;99.90
23087;DHT22;11712;51.134;4.156;2023-04-06T08:59:08;9.40;99.90
23087;DHT22;11712;51.134;4.156;2023-04-06T09:01:36;9.40;99.90
23087;DHT22;11712;51.134;4.156;2023-04-06T09:04:03;9.20;99.90
23087;DHT22;11712;51.134;4.156;2023-04-06T09:06:31;9.30;99.90
23087;DHT22;11712;51.134;4.156;2023-04-06T09:08:56;9.40;99.90
23087;DHT22;11712;51.134;4.156;2023-04-06T09:11:23;9.40;99.90
23087;DHT22;11712;51.134;4.156;2023-04-06T09:13:52;9.40;99.90
23087;DHT22;11712;51.134;4.156;2023-04-06T09:16:19;9.30;99.90
23087;DHT22;11712;51.134;4.156;2023-04-06T09:18:45;9.30;99.90
23087;DHT22;11712;51.134;4.156;2023-04-06T09:21:11;9.40;99.90
23087;DHT22;11712;51.134;4.156;2023-04-06T09:23:37;9.30;99.90
23087;DHT22;11712;51.134;4.156;2023-04-06T09:26:06;9.40;99.90
23087;DHT22;11712;51.134;4.156;2023-04-06T09:28:42;9.40;99.90
23087;DHT22;11712;51.134;4.156;2023-04-06T09:31:07;9.40;99.90
23087;DHT22;11712;51.134;4.156;2023-04-06T09:33:44;9.40;99.90
23087;DHT22;11712;51.134;4.156;2023-04-06T09:36:10;9.40;99.90
23087;DHT22;11712;51.134;4.156;2023-04-06T09:38:37;9.60;99.90
23087;DHT22;11712;51.134;4.156;2023-04-06T09:41:03;9.90;99.90
23087;DHT22;11712;51.134;4.156;2023-04-06T09:43:29;10.00;99.90
23087;DHT22;11712;51.134;4.156;2023-04-06T09:45:55;10.20;99.90
23087;DHT22;11712;51.134;4.156;2023-04-06T09:48:21;10.20;99.90
23087;DHT22;11712;51.134;4.156;2023-04-06T09:50:49;10.10;99.90
23087;DHT22;11712;51.134;4.156;2023-04-06T09:53:16;10.20;99.90
23087;DHT22;11712;51.134;4.156;2023-04-06T09:55:42;10.20;99.90
23087;DHT22;11712;51.134;4.156;2023-04-06T09:58:13;10.20;99.90
23087;DHT22;11712;51.134;4.156;2023-04-06T10:06:11;9.90;99.90
23087;DHT22;11712;51.134;4.156;2023-04-06T10:08:37;9.90;99.90
23087;DHT22;11712;51.134;4.156;2023-04-06T10:11:05;9.90;99.90
23087;DHT22;11712;51.134;4.156;2023-04-06T10:13:31;10.00;99.90
23087;DHT22;11712;51.134;4.156;2023-04-06T10:15:57;9.90;99.90
23087;DHT22;11712;51.134;4.156;2023-04-06T10:18:25;9.80;99.90
23087;DHT22;11712;51.134;4.156;2023-04-06T10:20:53;9.90;99.90
23087;DHT22;11712;51.134;4.156;2023-04-06T10:26:04;9.80;99.90
23087;DHT22;11712;51.134;4.156;2023-04-06T10:28:33;10.00;99.90
23087;DHT22;11712;51.134;4.156;2023-04-06T10:31:06;10.00;99.90
23087;DHT22;11712;51.134;4.156;2023-04-06T10:33:32;9.90;99.90
23087;DHT22;11712;51.134;4.156;2023-04-06T10:35:58;9.90;99.90
23087;DHT22;11712;51.134;4.156;2023-04-06T10:38:37;9.80;99.90
23087;DHT22;11712;51.134;4.156;2023-04-06T10:41:06;9.80;99.90
23087;DHT22;11712;51.134;4.156;2023-04-06T10:43:35;9.90;99.90
23087;DHT22;11712;51.134;4.156;2023-04-06T10:46:02;9.90;99.90
23087;DHT22;11712;51.134;4.156;2023-04-06T10:48:38;9.80;99.90
23087;DHT22;11712;51.134;4.156;2023-04-06T10:51:18;9.80;99.90
23087;DHT22;11712;51.134;4.156;2023-04-06T10:53:45;9.80;99.90
23087;DHT22;11712;51.134;4.156;2023-04-06T10:56:13;9.80;99.90
23087;DHT22;11712;51.134;4.156;2023-04-06T10:58:43;9.80;99.90
23087;DHT22;11712;51.134;4.156;2023-04-06T11:01:10;9.60;99.90
23087;DHT22;11712;51.134;4.156;2023-04-06T11:03:43;9.60;99.90
23087;DHT22;11712;51.134;4.156;2023-04-06T11:06:08;9.80;99.90
23087;DHT22;11712;51.134;4.156;2023-04-06T11:08:34;9.90;99.90
23087;DHT22;11712;51.134;4.156;2023-04-06T11:11:06;9.90;99.90
23087;DHT22;11712;51.134;4.156;2023-04-06T11:13:36;10.00;99.90
23087;DHT22;11712;51.134;4.156;2023-04-06T11:16:02;10.10;99.90
23087;DHT22;11712;51.134;4.156;2023-04-06T11:18:29;10.20;99.90
23087;DHT22;11712;51.134;4.156;2023-04-06T11:20:54;10.10;99.90
23087;DHT22;11712;51.134;4.156;2023-04-06T11:23:24;10.00;99.90
23087;DHT22;11712;51.134;4.156;2023-04-06T11:25:53;10.00;99.90
23087;DHT22;11712;51.134;4.156;2023-04-06T11:28:19;10.00;99.90
23087;DHT22;11712;51.134;4.156;2023-04-06T11:30:45;10.00;99.90
23087;DHT22;11712;51.134;4.156;2023-04-06T11:33:11;10.00;99.90
23087;DHT22;11712;51.134;4.156;2023-04-06T11:35:36;9.80;99.90
23087;DHT22;11712;51.134;4.156;2023-04-06T11:38:03;9.70;99.90
23087;DHT22;11712;51.134;4.156;2023-04-06T11:40:29;9.70;99.90
23087;DHT22;11712;51.134;4.156;2023-04-06T11:42:55;9.70;99.90
23087;DHT22;11712;51.134;4.156;2023-04-06T11:45:21;9.80;99.90
23087;DHT22;11712;51.134;4.156;2023-04-06T11:47:54;9.70;99.90
23087;DHT22;11712;51.134;4.156;2023-04-06T11:50:20;9.70;99.90
23087;DHT22;11712;51.134;4.156;2023-04-06T11:52:45;9.80;99.90
23087;DHT22;11712;51.134;4.156;2023-04-06T11:55:12;9.80;99.90
23087;DHT22;11712;51.134;4.156;2023-04-06T11:57:39;9.80;99.90
23087;DHT22;11712;51.134;4.156;2023-04-06T12:00:06;9.80;99.90
23087;DHT22;11712;51.134;4.156;2023-04-06T12:02:31;9.80;99.90
23087;DHT22;11712;51.134;4.156;2023-04-06T12:04:57;9.70;99.90
23087;DHT22;11712;51.134;4.156;2023-04-06T12:07:23;9.80;99.90
23087;DHT22;11712;51.134;4.156;2023-04-06T12:09:48;9.60;99.90
23087;DHT22;11712;51.134;4.156;2023-04-06T12:12:14;9.60;99.90
23087;DHT22;11712;51.134;4.156;2023-04-06T12:14:39;9.70;99.90
23087;DHT22;11712;51.134;4.156;2023-04-06T12:17:05;9.90;99.90
23087;DHT22;11712;51.134;4.156;2023-04-06T12:19:31;10.10;99.90
23087;DHT22;11712;51.134;4.156;2023-04-06T12:21:56;10.00;99.90
23087;DHT22;11712;51.134;4.156;2023-04-06T12:24:22;10.00;99.90
23087;DHT22;11712;51.134;4.156;2023-04-06T12:26:48;10.20;99.90
23087;DHT22;11712;51.134;4.156;2023-04-06T12:29:14;10.10;99.90
23087;DHT22;11712;51.134;4.156;2023-04-06T12:31:40;10.10;99.90
23087;DHT22;11712;51.134;4.156;2023-04-06T12:34:10;10.00;99.90
23087;DHT22;11712;51.134;4.156;2023-04-06T12:36:36;10.00;99.90
23087;DHT22;11712;51.134;4.156;2023-04-06T12:39:02;9.90;99.90
23087;DHT22;11712;51.134;4.156;2023-04-06T12:41:28;9.90;99.90
23087;DHT22;11712;51.134;4.156;2023-04-06T12:43:53;9.90;99.90
23087;DHT22;11712;51.134;4.156;2023-04-06T12:46:19;10.00;99.90
23087;DHT22;11712;51.134;4.156;2023-04-06T12:48:46;10.00;99.90
23087;DHT22;11712;51.134;4.156;2023-04-06T12:51:12;10.00;99.90
23087;DHT22;11712;51.134;4.156;2023-04-06T12:53:37;10.00;99.90
23087;DHT22;11712;51.134;4.156;2023-04-06T12:56:09;10.00;99.90
23087;DHT22;11712;51.134;4.156;2023-04-06T12:58:36;10.00;99.90
23087;DHT22;11712;51.134;4.156;2023-04-06T13:01:05;10.00;99.90
23087;DHT22;11712;51.134;4.156;2023-04-06T13:03:31;10.10;99.90
23087;DHT22;11712;51.134;4.156;2023-04-06T13:05:56;10.00;99.90
23087;DHT22;11712;51.134;4.156;2023-04-06T13:08:22;10.00;99.90
23087;DHT22;11712;51.134;4.156;2023-04-06T13:10:47;10.00;99.90
23087;DHT22;11712;51.134;4.156;2023-04-06T13:13:14;10.00;99.90
23087;DHT22;11712;51.134;4.156;2023-04-06T13:15:39;10.10;99.90
23087;DHT22;11712;51.134;4.156;2023-04-06T13:18:05;10.00;99.90
23087;DHT22;11712;51.134;4.156;2023-04-06T13:20:31;9.90;99.90
23087;DHT22;11712;51.134;4.156;2023-04-06T13:22:56;9.90;99.90
23087;DHT22;11712;51.134;4.156;2023-04-06T13:25:22;9.80;99.90
23087;DHT22;11712;51.134;4.156;2023-04-06T13:27:47;9.80;99.90
23087;DHT22;11712;51.134;4.156;2023-04-06T13:30:14;9.70;99.90
23087;DHT22;11712;51.134;4.156;2023-04-06T13:32:39;9.80;99.90
23087;DHT22;11712;51.134;4.156;2023-04-06T13:35:05;9.90;99.90
23087;DHT22;11712;51.134;4.156;2023-04-06T13:37:31;9.80;99.90
23087;DHT22;11712;51.134;4.156;2023-04-06T13:39:57;9.80;99.90
23087;DHT22;11712;51.134;4.156;2023-04-06T13:42:23;9.80;99.90
23087;DHT22;11712;51.134;4.156;2023-04-06T13:44:49;9.80;99.90
23087;DHT22;11712;51.134;4.156;2023-04-06T13:47:16;9.80;99.90
23087;DHT22;11712;51.134;4.156;2023-04-06T13:49:41;9.80;99.90
23087;DHT22;11712;51.134;4.156;2023-04-06T13:52:07;9.80;99.90
23087;DHT22;11712;51.134;4.156;2023-04-06T13:54:35;9.80;99.90
23087;DHT22;11712;51.134;4.156;2023-04-06T13:57:00;9.90;99.90
23087;DHT22;11712;51.134;4.156;2023-04-06T13:59:31;10.00;99.90
23087;DHT22;11712;51.134;4.156;2023-04-06T14:01:57;10.00;99.90
23087;DHT22;11712;51.134;4.156;2023-04-06T14:04:22;10.00;99.90
23087;DHT22;11712;51.134;4.156;2023-04-06T14:06:48;10.00;99.90
23087;DHT22;11712;51.134;4.156;2023-04-06T14:09:13;10.00;99.90
23087;DHT22;11712;51.134;4.156;2023-04-06T14:11:39;10.00;99.90
23087;DHT22;11712;51.134;4.156;2023-04-06T14:14:05;10.00;99.90
23087;DHT22;11712;51.134;4.156;2023-04-06T14:16:30;10.00;99.90
23087;DHT22;11712;51.134;4.156;2023-04-06T14:18:56;10.10;99.90
23087;DHT22;11712;51.134;4.156;2023-04-06T14:21:23;10.10;99.90
23087;DHT22;11712;51.134;4.156;2023-04-06T14:23:48;10.20;99.90
23087;DHT22;11712;51.134;4.156;2023-04-06T14:26:14;10.20;99.90
23087;DHT22;11712;51.134;4.156;2023-04-06T14:28:41;10.20;99.90
23087;DHT22;11712;51.134;4.156;2023-04-06T14:31:10;10.30;99.90
23087;DHT22;11712;51.134;4.156;2023-04-06T14:33:36;10.30;99.90
23087;DHT22;11712;51.134;4.156;2023-04-06T14:36:03;10.30;99.90
23087;DHT22;11712;51.134;4.156;2023-04-06T14:38:28;10.30;99.90
23087;DHT22;11712;51.134;4.156;2023-04-06T14:40:54;10.30;99.90
23087;DHT22;11712;51.134;4.156;2023-04-06T14:43:20;10.40;99.90
23087;DHT22;11712;51.134;4.156;2023-04-06T14:45:46;10.30;99.90
23087;DHT22;11712;51.134;4.156;2023-04-06T14:48:12;10.30;99.90
23087;DHT22;11712;51.134;4.156;2023-04-06T14:50:38;10.30;99.90
23087;DHT22;11712;51.134;4.156;2023-04-06T14:53:04;10.50;99.90
23087;DHT22;11712;51.134;4.156;2023-04-06T14:55:30;10.40;99.90
23087;DHT22;11712;51.134;4.156;2023-04-06T14:57:56;10.40;99.90
23087;DHT22;11712;51.134;4.156;2023-04-06T15:00:21;10.30;99.90
23087;DHT22;11712;51.134;4.156;2023-04-06T15:02:47;10.40;99.90
23087;DHT22;11712;51.134;4.156;2023-04-06T15:05:12;10.40;99.90
23087;DHT22;11712;51.134;4.156;2023-04-06T15:07:38;10.40;99.90
23087;DHT22;11712;51.134;4.156;2023-04-06T15:10:04;10.40;99.90
23087;DHT22;11712;51.134;4.156;2023-04-06T15:12:29;10.40;99.90
23087;DHT22;11712;51.134;4.156;2023-04-06T15:14:55;10.50;99.90
23087;DHT22;11712;51.134;4.156;2023-04-06T15:17:21;10.60;99.90
23087;DHT22;11712;51.134;4.156;2023-04-06T15:19:46;10.70;99.90
23087;DHT22;11712;51.134;4.156;2023-04-06T15:22:12;10.70;99.90
23087;DHT22;11712;51.134;4.156;2023-04-06T15:24:38;10.80;99.90
23087;DHT22;11712;51.134;4.156;2023-04-06T15:27:03;10.80;99.90
23087;DHT22;11712;51.134;4.156;2023-04-06T15:29:30;10.80;99.90
23087;DHT22;11712;51.134;4.156;2023-04-06T15:31:55;10.80;99.90
23087;DHT22;11712;51.134;4.156;2023-04-06T15:34:21;10.70;99.90
23087;DHT22;11712;51.134;4.156;2023-04-06T15:36:46;10.70;99.90
23087;DHT22;11712;51.134;4.156;2023-04-06T15:39:12;10.80;99.90
23087;DHT22;11712;51.134;4.156;2023-04-06T15:41:38;10.80;99.90
23087;DHT22;11712;51.134;4.156;2023-04-06T15:44:04;10.90;99.90